Terminal Aerodrome Forecast
Issued by NWS Sioux Falls, SD

Home | Current Version | Previous Version | Text Only | Print | Product List | Glossary Off
Versions: 1 2 3 4 5 6 7 8 9 10 11 12 13 14 15 16 17 18 19 20

000
FTUS43 KFSD 240520
TAFHON
TAF
KHON 240520Z 2406/2506 28007KT P6SM SKC
     FM241400 24005KT P6SM SCT120
     FM241700 26010KT P6SM BKN100
     FM242200 29014KT P6SM -RA BKN035
     FM250300 30015G22KT 5SM -SN OVC025=

USA.gov is the U.S. government's official web portal to all federal, state and local government web resources and services.